Time,TemperatureF,DewpointF,PressureIn,WindDirection,WindDirectionDegrees,WindSpeedMPH,WindSpeedGustMPH,Humidity,HourlyPrecipIn,Conditions,Clouds,dailyrainin,SoftwareType,DateUTC
2013-11-03 00:01:00,41.0,38.9,29.98,SSW,202,2.7,-999.0,92,-99.99,,,0.00,Acu-Link.com,2013-11-03 04:01:00,
2013-11-03 00:59:00,41.0,38.9,29.98,NE,45,0.0,-999.0,92,-99.99,,,0.00,Acu-Link.com,2013-11-03 04:59:00,
2013-11-03 07:43:00,38.7,35.5,30.19,ENE,67,2.7,-999.0,88,-99.99,,,0.00,Acu-Link.com,2013-11-03 12:43:00,
2013-11-03 08:14:00,38.5,35.0,30.20,ESE,112,3.2,-999.0,87,-99.99,,,0.00,Acu-Link.com,2013-11-03 13:14:00,
2013-11-03 08:45:00,40.8,35.4,30.21,ESE,112,4.2,-999.0,81,-99.99,,,0.00,Acu-Link.com,2013-11-03 13:45:00,
2013-11-03 09:07:00,40.8,35.4,30.22,ESE,112,2.7,-999.0,81,-99.99,,,0.00,Acu-Link.com,2013-11-03 14:07:00,
2013-11-03 11:33:00,50.4,37.0,30.25,ESE,112,2.2,-999.0,60,-99.99,,,0.00,Acu-Link.com,2013-11-03 16:33:00,
2013-11-03 13:14:00,51.3,39.9,30.24,North,0,2.2,-999.0,65,-99.99,,,0.00,Acu-Link.com,2013-11-03 18:14:00,
2013-11-03 13:30:00,52.9,39.4,30.24,North,0,1.7,-999.0,60,-99.99,,,0.00,Acu-Link.com,2013-11-03 18:30:00,
2013-11-03 13:46:00,53.2,37.9,30.24,East,90,2.2,-999.0,56,-99.99,,,0.00,Acu-Link.com,2013-11-03 18:46:00,
2013-11-03 14:01:00,55.4,40.4,30.24,ESE,112,3.7,-999.0,57,-99.99,,,0.00,Acu-Link.com,2013-11-03 19:01:00,
2013-11-03 14:36:00,52.5,39.0,30.24,NE,45,5.3,-999.0,60,-99.99,,,0.00,Acu-Link.com,2013-11-03 19:36:00,
2013-11-03 14:54:00,51.1,38.5,30.24,ENE,67,5.3,-999.0,62,-99.99,,,0.00,Acu-Link.com,2013-11-03 19:54:00,
2013-11-03 18:12:00,37.8,30.6,30.26,ESE,112,0.0,-999.0,75,-99.99,,,0.00,Acu-Link.com,2013-11-03 23:12:00,
2013-11-03 18:27:00,36.3,29.8,30.27,ESE,112,0.0,-999.0,77,-99.99,,,0.00,Acu-Link.com,2013-11-03 23:27:00,
2013-11-03 18:43:00,35.2,30.6,30.27,ESE,112,0.0,-999.0,83,-99.99,,,0.00,Acu-Link.com,2013-11-03 23:43:00,
2013-11-03 18:58:00,34.9,30.6,30.27,ESE,112,0.0,-999.0,84,-99.99,,,0.00,Acu-Link.com,2013-11-03 23:58:00,
2013-11-03 19:14:00,34.5,30.2,30.29,ESE,112,0.0,-999.0,84,-99.99,,,0.00,Acu-Link.com,2013-11-04 00:14:00,
2013-11-03 19:29:00,34.2,30.5,30.29,ESE,112,0.0,-999.0,86,-99.99,,,0.00,Acu-Link.com,2013-11-04 00:29:00,
2013-11-03 19:44:00,33.3,29.9,30.28,ESE,112,0.0,-999.0,87,-99.99,,,0.00,Acu-Link.com,2013-11-04 00:44:00,
2013-11-03 20:00:00,32.5,28.8,30.27,ESE,112,0.0,-999.0,86,-99.99,,,0.00,Acu-Link.com,2013-11-04 01:00:00,
2013-11-03 20:23:00,32.0,28.3,30.28,ESE,112,0.0,-999.0,86,-99.99,,,0.00,Acu-Link.com,2013-11-04 01:23:00,
2013-11-03 20:38:00,31.1,27.4,30.27,ESE,112,0.0,-999.0,86,-99.99,,,0.00,Acu-Link.com,2013-11-04 01:38:00,
2013-11-03 20:59:00,31.1,27.4,30.27,ESE,112,0.0,-999.0,86,-99.99,,,0.00,Acu-Link.com,2013-11-04 01:59:00,
2013-11-03 21:14:00,30.7,27.8,30.27,ESE,112,0.0,-999.0,89,-99.99,,,0.00,Acu-Link.com,2013-11-04 02:14:00,
2013-11-03 21:29:00,31.1,28.5,30.28,ESE,112,0.0,-999.0,90,-99.99,,,0.00,Acu-Link.com,2013-11-04 02:29:00,
2013-11-03 21:45:00,31.3,29.0,30.29,ESE,112,0.0,-999.0,91,-99.99,,,0.00,Acu-Link.com,2013-11-04 02:45:00,
2013-11-03 22:00:00,31.6,29.3,30.29,ESE,112,0.0,-999.0,91,-99.99,,,0.00,Acu-Link.com,2013-11-04 03:00:00,
2013-11-03 22:15:00,32.9,31.1,30.29,ESE,112,1.1,-999.0,93,-99.99,,,0.00,Acu-Link.com,2013-11-04 03:15:00,
2013-11-03 22:30:00,33.6,31.8,30.29,SE,135,2.2,-999.0,93,-99.99,,,0.00,Acu-Link.com,2013-11-04 03:30:00,
2013-11-03 22:53:00,32.7,30.9,30.30,ESE,112,0.0,-999.0,93,-99.99,,,0.00,Acu-Link.com,2013-11-04 03:53:00,
2013-11-03 23:13:00,32.7,30.9,30.31,ESE,112,0.0,-999.0,93,-99.99,,,0.00,Acu-Link.com,2013-11-04 04:13:00,
2013-11-03 23:48:00,30.7,28.9,30.31,ESE,112,0.0,-999.0,93,-99.99,,,0.00,Acu-Link.com,2013-11-04 04:48:00,